Pagina principală
METAR-TAF:

METAR-TAF

Aeroporturi :

Ilo, Peru

Latitudine: 17-41-45S, longitudine: 071-20-35W, elevație: 22 m

Observații meteo curente

Raportul a fost făcut în urmă cu 36 de minute, la 20:00 UTC
Vânt 11 kt de la Sud/Sud-est
Temperatură 23°C
Umiditate 73%
Presiune 1012 hPa
Vizibilitate de 10 km sau mai mult
nu există nori sub 1.500 m și nici cumulonimbus

METAR: SPLO 162000Z 16011KT CAVOK 23/18 Q1012 RMK PP000

Ora: 15:36 (20:36 UTC)

Prognoză

Raportul a fost făcut în urmă cu 3 ore și 36 de minute, la 17:00 UTC
Prognoză valabilă de la 16 ora 18 UTC la 17 ora 18 UTC
Vânt 10 kt de la Sud/Sud-est
Vizibilitate de 10 km sau mai mult
nu există nori sub 1.500 m și nici cumulonimbus

TAF: SPLO 161700Z 1618/1718 15010KT CAVOK TX27/1619Z TN19/1710Z

Observații și prognoze meteo pentru peste 4.000 de aeroporturi (rapoarte METAR și TAF).

Stațiile disponibile sunt reprezentate pe hartă prin puncte galbene și roșii.

Țineți indicatorul mouse-ului pe punctul dorit pentru a vedea denumirea stației.

Apoi, faceți clic pentru a vedea observațiile și prognozele meteorologice.

Pentru a schimba harta: Pentru mărire, faceți clic pe butoanele verzi cu cruce neagră; pentru micșorare, pe butonul verde cu o liniuță; pentru hărți învecinate, pe săgețile verzi.


METAR-TAF: